Pittsburgh, Pennsylvania
Traffic Map
Current Weather Conditions
Pittsburgh, Pennsylvania
Few Clouds
Few Clouds
55°
Feels Like: 55°
Wind Chill: 55° Ceiling: Unl
Heat Index: 55° Visibility: 10mi
Dew Point: 38° Wind: 10mph
Humidity: 53% Direction: 190° (S)
Pressure: 29.91in Gusts: 21mph
Raw Report DataKAGC 201753Z 19009G18KT 10SM FEW100 13/03 A2991 RMK AO2 SLP137 T01280033 10128 20056 58027
Traffic Incident Summary
Active as of:
Severity:
Category:
InformationThere was an issue retrieving the traffic information for this location. Please try a different location or try again shortly.
Advertisements
Track Severe Weather on mobile